sensor_id;sensor_type;location;lat;lon;timestamp;P1;durP1;ratioP1;P2;durP2;ratioP2
56927;SDS011;60850;52.502;13.426;2022-11-02T00:00:44;14.82;;;9.05;;
56927;SDS011;60850;52.502;13.426;2022-11-02T00:03:29;13.73;;;9.80;;
56927;SDS011;60850;52.502;13.426;2022-11-02T00:05:56;14.40;;;9.43;;
56927;SDS011;60850;52.502;13.426;2022-11-02T00:08:23;13.70;;;8.60;;
56927;SDS011;60850;52.502;13.426;2022-11-02T00:10:49;15.55;;;8.15;;
56927;SDS011;60850;52.502;13.426;2022-11-02T00:13:16;18.63;;;9.00;;
56927;SDS011;60850;52.502;13.426;2022-11-02T00:15:43;14.52;;;8.88;;
56927;SDS011;60850;52.502;13.426;2022-11-02T00:18:11;16.55;;;9.40;;
56927;SDS011;60850;52.502;13.426;2022-11-02T00:20:42;15.50;;;9.20;;
56927;SDS011;60850;52.502;13.426;2022-11-02T00:23:09;16.50;;;9.38;;
56927;SDS011;60850;52.502;13.426;2022-11-02T00:25:38;18.77;;;10.00;;
56927;SDS011;60850;52.502;13.426;2022-11-02T00:28:06;13.13;;;8.73;;
56927;SDS011;60850;52.502;13.426;2022-11-02T00:30:33;15.88;;;8.98;;
56927;SDS011;60850;52.502;13.426;2022-11-02T00:33:00;15.00;;;8.35;;
56927;SDS011;60850;52.502;13.426;2022-11-02T00:35:27;21.63;;;9.13;;
56927;SDS011;60850;52.502;13.426;2022-11-02T00:37:55;16.17;;;8.27;;
56927;SDS011;60850;52.502;13.426;2022-11-02T00:40:22;18.00;;;8.23;;
56927;SDS011;60850;52.502;13.426;2022-11-02T00:42:49;14.32;;;8.35;;
56927;SDS011;60850;52.502;13.426;2022-11-02T00:45:16;13.73;;;8.30;;
56927;SDS011;60850;52.502;13.426;2022-11-02T00:47:43;13.02;;;8.05;;
56927;SDS011;60850;52.502;13.426;2022-11-02T00:50:10;14.88;;;7.75;;
56927;SDS011;60850;52.502;13.426;2022-11-02T00:52:37;12.68;;;7.03;;
56927;SDS011;60850;52.502;13.426;2022-11-02T00:55:06;13.63;;;6.78;;
56927;SDS011;60850;52.502;13.426;2022-11-02T00:57:36;13.18;;;7.15;;
56927;SDS011;60850;52.502;13.426;2022-11-02T01:00:04;13.10;;;7.38;;
56927;SDS011;60850;52.502;13.426;2022-11-02T01:02:33;10.80;;;6.57;;
56927;SDS011;60850;52.502;13.426;2022-11-02T01:05:00;11.52;;;6.72;;
56927;SDS011;60850;52.502;13.426;2022-11-02T01:07:27;12.48;;;6.65;;
56927;SDS011;60850;52.502;13.426;2022-11-02T01:09:54;12.30;;;6.18;;
56927;SDS011;60850;52.502;13.426;2022-11-02T01:12:23;10.52;;;6.30;;
56927;SDS011;60850;52.502;13.426;2022-11-02T01:14:49;9.43;;;6.35;;
56927;SDS011;60850;52.502;13.426;2022-11-02T01:17:17;9.32;;;5.85;;
56927;SDS011;60850;52.502;13.426;2022-11-02T01:19:45;11.02;;;5.82;;
56927;SDS011;60850;52.502;13.426;2022-11-02T01:22:12;8.15;;;5.38;;
56927;SDS011;60850;52.502;13.426;2022-11-02T01:24:38;8.98;;;5.53;;
56927;SDS011;60850;52.502;13.426;2022-11-02T01:27:06;13.48;;;6.15;;
56927;SDS011;60850;52.502;13.426;2022-11-02T01:29:34;8.02;;;5.25;;
56927;SDS011;60850;52.502;13.426;2022-11-02T01:32:01;9.80;;;5.22;;
56927;SDS011;60850;52.502;13.426;2022-11-02T01:34:28;9.63;;;5.15;;
56927;SDS011;60850;52.502;13.426;2022-11-02T01:36:54;9.43;;;5.30;;
56927;SDS011;60850;52.502;13.426;2022-11-02T01:39:21;10.10;;;5.45;;
56927;SDS011;60850;52.502;13.426;2022-11-02T01:41:49;10.23;;;5.63;;
56927;SDS011;60850;52.502;13.426;2022-11-02T01:44:27;8.80;;;5.20;;
56927;SDS011;60850;52.502;13.426;2022-11-02T01:46:58;11.30;;;5.53;;
56927;SDS011;60850;52.502;13.426;2022-11-02T01:49:28;10.48;;;5.03;;
56927;SDS011;60850;52.502;13.426;2022-11-02T01:52:01;9.85;;;5.40;;
56927;SDS011;60850;52.502;13.426;2022-11-02T01:54:35;8.57;;;4.78;;
56927;SDS011;60850;52.502;13.426;2022-11-02T01:57:06;8.15;;;4.53;;
56927;SDS011;60850;52.502;13.426;2022-11-02T01:59:36;6.03;;;4.03;;
56927;SDS011;60850;52.502;13.426;2022-11-02T02:02:12;9.30;;;4.77;;
56927;SDS011;60850;52.502;13.426;2022-11-02T02:04:42;6.03;;;4.50;;
56927;SDS011;60850;52.502;13.426;2022-11-02T02:07:10;12.02;;;4.90;;
56927;SDS011;60850;52.502;13.426;2022-11-02T02:09:39;9.05;;;4.18;;
56927;SDS011;60850;52.502;13.426;2022-11-02T02:12:06;7.03;;;4.88;;
56927;SDS011;60850;52.502;13.426;2022-11-02T02:14:33;5.95;;;4.13;;
56927;SDS011;60850;52.502;13.426;2022-11-02T02:17:05;9.82;;;4.20;;
56927;SDS011;60850;52.502;13.426;2022-11-02T02:19:44;7.70;;;3.88;;
56927;SDS011;60850;52.502;13.426;2022-11-02T02:22:26;7.30;;;4.40;;
56927;SDS011;60850;52.502;13.426;2022-11-02T02:25:21;7.80;;;4.47;;
56927;SDS011;60850;52.502;13.426;2022-11-02T02:28:01;7.53;;;3.50;;
56927;SDS011;60850;52.502;13.426;2022-11-02T02:30:39;7.55;;;3.67;;
56927;SDS011;60850;52.502;13.426;2022-11-02T02:33:12;6.78;;;3.92;;
56927;SDS011;60850;52.502;13.426;2022-11-02T02:35:50;7.80;;;4.03;;
56927;SDS011;60850;52.502;13.426;2022-11-02T02:38:24;7.40;;;3.75;;
56927;SDS011;60850;52.502;13.426;2022-11-02T02:40:56;6.95;;;3.80;;
56927;SDS011;60850;52.502;13.426;2022-11-02T02:43:35;8.27;;;3.97;;
56927;SDS011;60850;52.502;13.426;2022-11-02T02:46:06;6.07;;;3.87;;
56927;SDS011;60850;52.502;13.426;2022-11-02T02:48:36;7.88;;;3.47;;
56927;SDS011;60850;52.502;13.426;2022-11-02T02:51:08;8.82;;;3.92;;
56927;SDS011;60850;52.502;13.426;2022-11-02T02:53:39;9.70;;;3.95;;
56927;SDS011;60850;52.502;13.426;2022-11-02T02:56:09;8.43;;;3.95;;
56927;SDS011;60850;52.502;13.426;2022-11-02T02:58:41;6.88;;;3.75;;
56927;SDS011;60850;52.502;13.426;2022-11-02T03:01:12;8.70;;;3.75;;
56927;SDS011;60850;52.502;13.426;2022-11-02T03:03:42;6.65;;;3.35;;
56927;SDS011;60850;52.502;13.426;2022-11-02T03:06:13;7.68;;;3.13;;
56927;SDS011;60850;52.502;13.426;2022-11-02T03:11:14;9.48;;;3.58;;
56927;SDS011;60850;52.502;13.426;2022-11-02T03:13:48;4.43;;;3.05;;
56927;SDS011;60850;52.502;13.426;2022-11-02T03:16:33;5.43;;;3.25;;
56927;SDS011;60850;52.502;13.426;2022-11-02T03:19:10;8.48;;;3.72;;
56927;SDS011;60850;52.502;13.426;2022-11-02T03:21:45;7.05;;;3.70;;
56927;SDS011;60850;52.502;13.426;2022-11-02T03:24:15;7.90;;;3.40;;
56927;SDS011;60850;52.502;13.426;2022-11-02T03:26:47;7.40;;;3.63;;
56927;SDS011;60850;52.502;13.426;2022-11-02T03:29:23;7.05;;;4.50;;
56927;SDS011;60850;52.502;13.426;2022-11-02T03:31:54;5.65;;;3.50;;
56927;SDS011;60850;52.502;13.426;2022-11-02T03:34:26;10.43;;;3.70;;
56927;SDS011;60850;52.502;13.426;2022-11-02T03:37:00;6.88;;;3.25;;
56927;SDS011;60850;52.502;13.426;2022-11-02T03:39:36;7.38;;;3.67;;
56927;SDS011;60850;52.502;13.426;2022-11-02T03:42:06;7.28;;;3.80;;
56927;SDS011;60850;52.502;13.426;2022-11-02T03:44:39;6.25;;;3.20;;
56927;SDS011;60850;52.502;13.426;2022-11-02T03:47:07;8.85;;;3.60;;
56927;SDS011;60850;52.502;13.426;2022-11-02T03:49:38;9.32;;;3.88;;
56927;SDS011;60850;52.502;13.426;2022-11-02T03:52:07;7.93;;;3.67;;
56927;SDS011;60850;52.502;13.426;2022-11-02T03:54:41;5.07;;;3.28;;
56927;SDS011;60850;52.502;13.426;2022-11-02T03:57:13;6.50;;;3.22;;
56927;SDS011;60850;52.502;13.426;2022-11-02T03:59:46;5.70;;;3.65;;
56927;SDS011;60850;52.502;13.426;2022-11-02T04:02:13;6.57;;;3.30;;
56927;SDS011;60850;52.502;13.426;2022-11-02T04:04:46;5.30;;;2.67;;
56927;SDS011;60850;52.502;13.426;2022-11-02T04:07:15;7.85;;;3.75;;
56927;SDS011;60850;52.502;13.426;2022-11-02T04:09:44;4.57;;;3.03;;
56927;SDS011;60850;52.502;13.426;2022-11-02T04:12:11;5.65;;;2.80;;
56927;SDS011;60850;52.502;13.426;2022-11-02T04:17:25;8.57;;;2.92;;
56927;SDS011;60850;52.502;13.426;2022-11-02T04:22:36;9.00;;;2.83;;
56927;SDS011;60850;52.502;13.426;2022-11-02T04:25:20;7.60;;;3.15;;
56927;SDS011;60850;52.502;13.426;2022-11-02T04:27:48;7.97;;;3.03;;
56927;SDS011;60850;52.502;13.426;2022-11-02T04:30:18;6.93;;;2.75;;
56927;SDS011;60850;52.502;13.426;2022-11-02T04:32:46;4.38;;;2.67;;
56927;SDS011;60850;52.502;13.426;2022-11-02T04:35:32;8.50;;;2.83;;
56927;SDS011;60850;52.502;13.426;2022-11-02T04:38:00;6.43;;;3.15;;
56927;SDS011;60850;52.502;13.426;2022-11-02T04:40:45;8.35;;;3.08;;
56927;SDS011;60850;52.502;13.426;2022-11-02T04:43:12;6.75;;;2.60;;
56927;SDS011;60850;52.502;13.426;2022-11-02T04:45:40;4.65;;;2.50;;
56927;SDS011;60850;52.502;13.426;2022-11-02T04:48:08;4.95;;;3.05;;
56927;SDS011;60850;52.502;13.426;2022-11-02T04:50:35;5.78;;;2.30;;
56927;SDS011;60850;52.502;13.426;2022-11-02T04:53:03;10.25;;;2.65;;
56927;SDS011;60850;52.502;13.426;2022-11-02T04:55:32;9.93;;;3.40;;
56927;SDS011;60850;52.502;13.426;2022-11-02T04:58:00;8.90;;;2.75;;
56927;SDS011;60850;52.502;13.426;2022-11-02T05:00:27;8.27;;;2.13;;
56927;SDS011;60850;52.502;13.426;2022-11-02T05:02:55;8.55;;;2.33;;
56927;SDS011;60850;52.502;13.426;2022-11-02T05:05:22;8.18;;;2.40;;
56927;SDS011;60850;52.502;13.426;2022-11-02T05:07:49;6.70;;;2.28;;
56927;SDS011;60850;52.502;13.426;2022-11-02T05:10:16;8.48;;;2.33;;
56927;SDS011;60850;52.502;13.426;2022-11-02T05:12:43;6.72;;;2.30;;
56927;SDS011;60850;52.502;13.426;2022-11-02T05:15:10;7.68;;;2.30;;
56927;SDS011;60850;52.502;13.426;2022-11-02T05:17:37;5.50;;;1.83;;
56927;SDS011;60850;52.502;13.426;2022-11-02T05:20:05;6.45;;;2.22;;
56927;SDS011;60850;52.502;13.426;2022-11-02T05:22:33;5.53;;;1.92;;
56927;SDS011;60850;52.502;13.426;2022-11-02T05:25:00;7.65;;;2.28;;
56927;SDS011;60850;52.502;13.426;2022-11-02T05:27:27;12.77;;;4.20;;
56927;SDS011;60850;52.502;13.426;2022-11-02T05:29:54;9.43;;;2.60;;
56927;SDS011;60850;52.502;13.426;2022-11-02T05:32:21;6.50;;;2.00;;
56927;SDS011;60850;52.502;13.426;2022-11-02T05:34:48;8.15;;;1.90;;
56927;SDS011;60850;52.502;13.426;2022-11-02T05:37:16;6.35;;;2.05;;
56927;SDS011;60850;52.502;13.426;2022-11-02T05:39:43;4.88;;;2.17;;
56927;SDS011;60850;52.502;13.426;2022-11-02T05:42:10;7.30;;;2.20;;
56927;SDS011;60850;52.502;13.426;2022-11-02T05:44:37;11.52;;;2.20;;
56927;SDS011;60850;52.502;13.426;2022-11-02T05:47:04;7.20;;;2.05;;
56927;SDS011;60850;52.502;13.426;2022-11-02T05:49:31;5.22;;;2.15;;
56927;SDS011;60850;52.502;13.426;2022-11-02T05:51:58;5.20;;;2.03;;
56927;SDS011;60850;52.502;13.426;2022-11-02T05:54:26;5.80;;;2.40;;
56927;SDS011;60850;52.502;13.426;2022-11-02T05:56:53;9.15;;;2.30;;
56927;SDS011;60850;52.502;13.426;2022-11-02T05:59:20;6.75;;;2.47;;
56927;SDS011;60850;52.502;13.426;2022-11-02T06:01:47;6.95;;;2.30;;
56927;SDS011;60850;52.502;13.426;2022-11-02T06:04:14;7.95;;;2.15;;
56927;SDS011;60850;52.502;13.426;2022-11-02T06:06:40;6.40;;;2.10;;
56927;SDS011;60850;52.502;13.426;2022-11-02T06:09:07;7.32;;;2.20;;
56927;SDS011;60850;52.502;13.426;2022-11-02T06:11:36;6.80;;;2.05;;
56927;SDS011;60850;52.502;13.426;2022-11-02T06:14:02;12.43;;;2.42;;
56927;SDS011;60850;52.502;13.426;2022-11-02T06:16:29;4.95;;;2.35;;
56927;SDS011;60850;52.502;13.426;2022-11-02T06:18:56;7.25;;;2.33;;
56927;SDS011;60850;52.502;13.426;2022-11-02T06:21:23;6.43;;;1.95;;
56927;SDS011;60850;52.502;13.426;2022-11-02T06:23:50;5.22;;;1.98;;
56927;SDS011;60850;52.502;13.426;2022-11-02T06:26:17;6.80;;;2.15;;
56927;SDS011;60850;52.502;13.426;2022-11-02T06:28:45;9.10;;;2.63;;
56927;SDS011;60850;52.502;13.426;2022-11-02T06:31:12;9.23;;;2.70;;
56927;SDS011;60850;52.502;13.426;2022-11-02T06:33:41;6.25;;;2.30;;
56927;SDS011;60850;52.502;13.426;2022-11-02T06:36:09;7.70;;;2.83;;
56927;SDS011;60850;52.502;13.426;2022-11-02T06:38:36;6.68;;;2.13;;
56927;SDS011;60850;52.502;13.426;2022-11-02T06:41:04;12.85;;;2.03;;
56927;SDS011;60850;52.502;13.426;2022-11-02T06:43:31;9.88;;;2.03;;
56927;SDS011;60850;52.502;13.426;2022-11-02T06:46:00;8.45;;;2.10;;
56927;SDS011;60850;52.502;13.426;2022-11-02T06:48:26;4.10;;;1.95;;
56927;SDS011;60850;52.502;13.426;2022-11-02T06:50:53;17.05;;;2.95;;
56927;SDS011;60850;52.502;13.426;2022-11-02T06:53:21;11.30;;;2.13;;
56927;SDS011;60850;52.502;13.426;2022-11-02T06:55:51;7.07;;;2.15;;
56927;SDS011;60850;52.502;13.426;2022-11-02T06:58:19;7.95;;;2.10;;
56927;SDS011;60850;52.502;13.426;2022-11-02T07:00:46;9.20;;;2.53;;
56927;SDS011;60850;52.502;13.426;2022-11-02T07:03:14;5.35;;;2.20;;
56927;SDS011;60850;52.502;13.426;2022-11-02T07:05:42;6.38;;;1.95;;
56927;SDS011;60850;52.502;13.426;2022-11-02T07:08:15;8.70;;;2.30;;
56927;SDS011;60850;52.502;13.426;2022-11-02T07:10:42;13.43;;;2.28;;
56927;SDS011;60850;52.502;13.426;2022-11-02T07:13:08;8.52;;;2.30;;
56927;SDS011;60850;52.502;13.426;2022-11-02T07:15:35;4.13;;;1.95;;
56927;SDS011;60850;52.502;13.426;2022-11-02T07:18:03;8.38;;;2.25;;
56927;SDS011;60850;52.502;13.426;2022-11-02T07:20:32;10.02;;;3.25;;
56927;SDS011;60850;52.502;13.426;2022-11-02T07:22:59;7.93;;;2.25;;
56927;SDS011;60850;52.502;13.426;2022-11-02T07:25:27;5.00;;;2.30;;
56927;SDS011;60850;52.502;13.426;2022-11-02T07:27:56;8.13;;;2.33;;
56927;SDS011;60850;52.502;13.426;2022-11-02T07:30:24;10.68;;;2.40;;
56927;SDS011;60850;52.502;13.426;2022-11-02T07:32:51;8.75;;;2.40;;
56927;SDS011;60850;52.502;13.426;2022-11-02T07:35:18;9.27;;;2.35;;
56927;SDS011;60850;52.502;13.426;2022-11-02T07:37:54;7.85;;;2.33;;
56927;SDS011;60850;52.502;13.426;2022-11-02T07:40:22;7.22;;;2.35;;
56927;SDS011;60850;52.502;13.426;2022-11-02T07:42:49;6.00;;;2.17;;
56927;SDS011;60850;52.502;13.426;2022-11-02T07:45:18;5.07;;;2.25;;
56927;SDS011;60850;52.502;13.426;2022-11-02T07:47:45;6.43;;;1.98;;
56927;SDS011;60850;52.502;13.426;2022-11-02T07:50:14;9.32;;;1.65;;
56927;SDS011;60850;52.502;13.426;2022-11-02T07:52:43;4.85;;;1.70;;
56927;SDS011;60850;52.502;13.426;2022-11-02T07:55:13;5.43;;;1.50;;
56927;SDS011;60850;52.502;13.426;2022-11-02T07:57:41;8.45;;;2.13;;
56927;SDS011;60850;52.502;13.426;2022-11-02T08:00:08;5.28;;;1.50;;
56927;SDS011;60850;52.502;13.426;2022-11-02T08:02:36;20.00;;;6.82;;
56927;SDS011;60850;52.502;13.426;2022-11-02T08:05:03;19.10;;;8.23;;
56927;SDS011;60850;52.502;13.426;2022-11-02T08:07:30;18.23;;;6.80;;
56927;SDS011;60850;52.502;13.426;2022-11-02T08:09:57;7.03;;;2.55;;
56927;SDS011;60850;52.502;13.426;2022-11-02T08:12:25;12.48;;;3.30;;
56927;SDS011;60850;52.502;13.426;2022-11-02T08:14:53;8.10;;;3.15;;
56927;SDS011;60850;52.502;13.426;2022-11-02T08:17:20;7.80;;;2.42;;
56927;SDS011;60850;52.502;13.426;2022-11-02T08:19:48;7.53;;;2.70;;
56927;SDS011;60850;52.502;13.426;2022-11-02T08:22:14;5.85;;;1.85;;
56927;SDS011;60850;52.502;13.426;2022-11-02T08:24:41;4.68;;;1.38;;
56927;SDS011;60850;52.502;13.426;2022-11-02T08:27:08;9.02;;;1.48;;
56927;SDS011;60850;52.502;13.426;2022-11-02T08:29:37;5.00;;;2.08;;
56927;SDS011;60850;52.502;13.426;2022-11-02T08:32:04;4.35;;;1.52;;
56927;SDS011;60850;52.502;13.426;2022-11-02T08:34:31;8.55;;;1.77;;
56927;SDS011;60850;52.502;13.426;2022-11-02T08:36:58;7.15;;;1.67;;
56927;SDS011;60850;52.502;13.426;2022-11-02T08:39:25;4.07;;;1.65;;
56927;SDS011;60850;52.502;13.426;2022-11-02T08:41:53;7.85;;;1.55;;
56927;SDS011;60850;52.502;13.426;2022-11-02T08:44:20;6.78;;;1.52;;
56927;SDS011;60850;52.502;13.426;2022-11-02T08:46:48;5.68;;;1.63;;
56927;SDS011;60850;52.502;13.426;2022-11-02T08:49:15;7.07;;;1.85;;
56927;SDS011;60850;52.502;13.426;2022-11-02T08:51:42;6.65;;;1.65;;
56927;SDS011;60850;52.502;13.426;2022-11-02T08:54:10;10.40;;;1.60;;
56927;SDS011;60850;52.502;13.426;2022-11-02T08:56:37;4.90;;;1.60;;
56927;SDS011;60850;52.502;13.426;2022-11-02T08:59:04;7.65;;;2.00;;
56927;SDS011;60850;52.502;13.426;2022-11-02T09:01:30;5.18;;;1.63;;
56927;SDS011;60850;52.502;13.426;2022-11-02T09:03:59;8.60;;;2.08;;
56927;SDS011;60850;52.502;13.426;2022-11-02T09:06:26;5.05;;;1.40;;
56927;SDS011;60850;52.502;13.426;2022-11-02T09:08:53;9.98;;;1.85;;
56927;SDS011;60850;52.502;13.426;2022-11-02T09:11:20;9.18;;;2.17;;
56927;SDS011;60850;52.502;13.426;2022-11-02T09:13:47;6.13;;;1.73;;
56927;SDS011;60850;52.502;13.426;2022-11-02T09:16:13;4.93;;;1.25;;
56927;SDS011;60850;52.502;13.426;2022-11-02T09:18:40;7.85;;;1.70;;
56927;SDS011;60850;52.502;13.426;2022-11-02T09:21:08;6.82;;;1.98;;
56927;SDS011;60850;52.502;13.426;2022-11-02T09:23:35;6.07;;;1.80;;
56927;SDS011;60850;52.502;13.426;2022-11-02T09:26:02;8.50;;;1.55;;
56927;SDS011;60850;52.502;13.426;2022-11-02T09:28:29;7.22;;;1.83;;
56927;SDS011;60850;52.502;13.426;2022-11-02T09:30:56;12.98;;;3.03;;
56927;SDS011;60850;52.502;13.426;2022-11-02T09:33:23;8.20;;;1.88;;
56927;SDS011;60850;52.502;13.426;2022-11-02T09:35:50;4.88;;;1.63;;
56927;SDS011;60850;52.502;13.426;2022-11-02T09:38:18;6.07;;;1.88;;
56927;SDS011;60850;52.502;13.426;2022-11-02T09:40:47;10.25;;;1.65;;
56927;SDS011;60850;52.502;13.426;2022-11-02T09:43:27;9.13;;;2.70;;
56927;SDS011;60850;52.502;13.426;2022-11-02T09:46:05;5.20;;;2.38;;
56927;SDS011;60850;52.502;13.426;2022-11-02T09:48:35;8.57;;;1.55;;
56927;SDS011;60850;52.502;13.426;2022-11-02T09:51:07;6.80;;;1.45;;
56927;SDS011;60850;52.502;13.426;2022-11-02T09:53:48;4.65;;;1.50;;
56927;SDS011;60850;52.502;13.426;2022-11-02T09:56:19;8.23;;;2.17;;
56927;SDS011;60850;52.502;13.426;2022-11-02T09:58:48;6.82;;;1.88;;
56927;SDS011;60850;52.502;13.426;2022-11-02T10:04:15;7.28;;;1.83;;
56927;SDS011;60850;52.502;13.426;2022-11-02T10:06:53;7.63;;;2.25;;
56927;SDS011;60850;52.502;13.426;2022-11-02T10:09:32;9.07;;;2.53;;
56927;SDS011;60850;52.502;13.426;2022-11-02T10:12:06;8.65;;;1.67;;
56927;SDS011;60850;52.502;13.426;2022-11-02T10:14:38;4.60;;;1.85;;
56927;SDS011;60850;52.502;13.426;2022-11-02T10:17:12;4.90;;;1.25;;
56927;SDS011;60850;52.502;13.426;2022-11-02T10:19:55;8.68;;;2.17;;
56927;SDS011;60850;52.502;13.426;2022-11-02T10:22:26;5.30;;;1.25;;
56927;SDS011;60850;52.502;13.426;2022-11-02T10:24:59;6.43;;;1.80;;
56927;SDS011;60850;52.502;13.426;2022-11-02T10:27:31;11.90;;;1.67;;
56927;SDS011;60850;52.502;13.426;2022-11-02T10:30:03;5.63;;;1.50;;
56927;SDS011;60850;52.502;13.426;2022-11-02T10:32:33;9.80;;;1.50;;
56927;SDS011;60850;52.502;13.426;2022-11-02T10:35:02;7.15;;;1.92;;
56927;SDS011;60850;52.502;13.426;2022-11-02T10:37:35;9.15;;;4.20;;
56927;SDS011;60850;52.502;13.426;2022-11-02T10:40:17;7.43;;;1.10;;
56927;SDS011;60850;52.502;13.426;2022-11-02T10:48:26;6.60;;;1.35;;
56927;SDS011;60850;52.502;13.426;2022-11-02T10:51:04;8.93;;;1.52;;
56927;SDS011;60850;52.502;13.426;2022-11-02T10:53:34;4.80;;;1.10;;
56927;SDS011;60850;52.502;13.426;2022-11-02T10:56:09;3.85;;;1.27;;
56927;SDS011;60850;52.502;13.426;2022-11-02T10:58:43;13.00;;;1.42;;
56927;SDS011;60850;52.502;13.426;2022-11-02T11:01:17;3.53;;;1.10;;
56927;SDS011;60850;52.502;13.426;2022-11-02T11:03:53;4.93;;;1.33;;
56927;SDS011;60850;52.502;13.426;2022-11-02T11:06:23;5.20;;;1.55;;
56927;SDS011;60850;52.502;13.426;2022-11-02T11:08:51;8.43;;;1.40;;
56927;SDS011;60850;52.502;13.426;2022-11-02T11:11:27;3.50;;;1.23;;
56927;SDS011;60850;52.502;13.426;2022-11-02T11:13:57;4.55;;;1.17;;
56927;SDS011;60850;52.502;13.426;2022-11-02T11:16:29;7.07;;;1.40;;
56927;SDS011;60850;52.502;13.426;2022-11-02T11:18:58;2.88;;;1.10;;
56927;SDS011;60850;52.502;13.426;2022-11-02T11:21:33;7.68;;;1.63;;
56927;SDS011;60850;52.502;13.426;2022-11-02T11:27:02;6.10;;;1.45;;
56927;SDS011;60850;52.502;13.426;2022-11-02T11:29:31;7.50;;;1.27;;
56927;SDS011;60850;52.502;13.426;2022-11-02T11:31:59;9.45;;;2.10;;
56927;SDS011;60850;52.502;13.426;2022-11-02T11:34:28;6.30;;;1.70;;
56927;SDS011;60850;52.502;13.426;2022-11-02T11:37:05;6.07;;;1.35;;
56927;SDS011;60850;52.502;13.426;2022-11-02T11:39:35;8.30;;;1.42;;
56927;SDS011;60850;52.502;13.426;2022-11-02T11:42:11;8.77;;;1.60;;
56927;SDS011;60850;52.502;13.426;2022-11-02T11:44:43;6.78;;;1.52;;
56927;SDS011;60850;52.502;13.426;2022-11-02T11:47:11;7.43;;;1.45;;
56927;SDS011;60850;52.502;13.426;2022-11-02T11:49:41;6.38;;;2.00;;
56927;SDS011;60850;52.502;13.426;2022-11-02T11:52:26;5.10;;;1.42;;
56927;SDS011;60850;52.502;13.426;2022-11-02T11:54:55;7.13;;;1.70;;
56927;SDS011;60850;52.502;13.426;2022-11-02T11:57:26;10.52;;;2.05;;
56927;SDS011;60850;52.502;13.426;2022-11-02T11:59:56;9.00;;;2.22;;
56927;SDS011;60850;52.502;13.426;2022-11-02T12:02:27;9.75;;;2.53;;
56927;SDS011;60850;52.502;13.426;2022-11-02T12:04:59;6.88;;;2.08;;
56927;SDS011;60850;52.502;13.426;2022-11-02T12:07:34;5.38;;;1.83;;
56927;SDS011;60850;52.502;13.426;2022-11-02T12:10:25;7.50;;;1.55;;
56927;SDS011;60850;52.502;13.426;2022-11-02T12:13:07;4.47;;;1.45;;
56927;SDS011;60850;52.502;13.426;2022-11-02T12:15:52;6.00;;;1.45;;
56927;SDS011;60850;52.502;13.426;2022-11-02T12:18:30;4.35;;;1.25;;
56927;SDS011;60850;52.502;13.426;2022-11-02T12:21:09;8.38;;;1.75;;
56927;SDS011;60850;52.502;13.426;2022-11-02T12:24:04;8.55;;;1.80;;
56927;SDS011;60850;52.502;13.426;2022-11-02T12:26:41;7.00;;;1.75;;
56927;SDS011;60850;52.502;13.426;2022-11-02T12:29:29;10.68;;;1.70;;
56927;SDS011;60850;52.502;13.426;2022-11-02T12:32:12;8.70;;;2.63;;
56927;SDS011;60850;52.502;13.426;2022-11-02T12:34:57;8.77;;;2.50;;
56927;SDS011;60850;52.502;13.426;2022-11-02T12:37:45;5.22;;;1.20;;
56927;SDS011;60850;52.502;13.426;2022-11-02T12:40:24;3.58;;;1.10;;
56927;SDS011;60850;52.502;13.426;2022-11-02T12:43:01;6.07;;;1.98;;
56927;SDS011;60850;52.502;13.426;2022-11-02T12:48:17;4.78;;;1.63;;
56927;SDS011;60850;52.502;13.426;2022-11-02T12:50:52;6.38;;;1.33;;
56927;SDS011;60850;52.502;13.426;2022-11-02T12:53:32;5.35;;;1.30;;
56927;SDS011;60850;52.502;13.426;2022-11-02T12:56:06;4.22;;;1.45;;
56927;SDS011;60850;52.502;13.426;2022-11-02T12:58:37;7.05;;;1.20;;
56927;SDS011;60850;52.502;13.426;2022-11-02T13:01:08;5.72;;;1.50;;
56927;SDS011;60850;52.502;13.426;2022-11-02T13:03:42;4.43;;;1.30;;
56927;SDS011;60850;52.502;13.426;2022-11-02T13:06:16;5.25;;;1.75;;
56927;SDS011;60850;52.502;13.426;2022-11-02T13:08:48;4.13;;;1.40;;
56927;SDS011;60850;52.502;13.426;2022-11-02T13:11:21;6.35;;;1.45;;
56927;SDS011;60850;52.502;13.426;2022-11-02T13:13:53;6.38;;;1.38;;
56927;SDS011;60850;52.502;13.426;2022-11-02T13:16:24;8.38;;;1.70;;
56927;SDS011;60850;52.502;13.426;2022-11-02T13:19:00;5.90;;;1.60;;
56927;SDS011;60850;52.502;13.426;2022-11-02T13:21:31;4.18;;;1.30;;
56927;SDS011;60850;52.502;13.426;2022-11-02T13:24:01;6.53;;;2.38;;
56927;SDS011;60850;52.502;13.426;2022-11-02T13:26:31;5.70;;;1.60;;
56927;SDS011;60850;52.502;13.426;2022-11-02T13:29:03;6.35;;;1.65;;
56927;SDS011;60850;52.502;13.426;2022-11-02T13:31:40;8.85;;;1.95;;
56927;SDS011;60850;52.502;13.426;2022-11-02T13:34:11;7.65;;;2.00;;
56927;SDS011;60850;52.502;13.426;2022-11-02T13:36:41;7.88;;;1.73;;
56927;SDS011;60850;52.502;13.426;2022-11-02T13:39:12;15.25;;;1.63;;
56927;SDS011;60850;52.502;13.426;2022-11-02T13:41:56;5.63;;;1.30;;
56927;SDS011;60850;52.502;13.426;2022-11-02T13:47:53;5.47;;;1.13;;
56927;SDS011;60850;52.502;13.426;2022-11-02T13:50:52;5.63;;;1.25;;
56927;SDS011;60850;52.502;13.426;2022-11-02T13:53:21;4.70;;;2.15;;
56927;SDS011;60850;52.502;13.426;2022-11-02T13:55:54;11.25;;;2.05;;
56927;SDS011;60850;52.502;13.426;2022-11-02T13:58:24;7.05;;;2.15;;
56927;SDS011;60850;52.502;13.426;2022-11-02T14:00:53;8.48;;;1.95;;
56927;SDS011;60850;52.502;13.426;2022-11-02T14:03:26;5.05;;;1.92;;
56927;SDS011;60850;52.502;13.426;2022-11-02T14:05:57;7.07;;;1.70;;
56927;SDS011;60850;52.502;13.426;2022-11-02T14:08:29;6.82;;;1.95;;
56927;SDS011;60850;52.502;13.426;2022-11-02T14:11:00;7.07;;;1.77;;
56927;SDS011;60850;52.502;13.426;2022-11-02T14:16:41;7.13;;;2.13;;
56927;SDS011;60850;52.502;13.426;2022-11-02T14:19:21;6.65;;;3.10;;
56927;SDS011;60850;52.502;13.426;2022-11-02T14:22:04;6.20;;;1.92;;
56927;SDS011;60850;52.502;13.426;2022-11-02T14:27:50;5.68;;;2.00;;
56927;SDS011;60850;52.502;13.426;2022-11-02T14:30:39;4.82;;;1.65;;
56927;SDS011;60850;52.502;13.426;2022-11-02T14:33:14;5.72;;;1.17;;
56927;SDS011;60850;52.502;13.426;2022-11-02T14:35:53;7.20;;;1.40;;
56927;SDS011;60850;52.502;13.426;2022-11-02T14:38:33;5.75;;;1.73;;
56927;SDS011;60850;52.502;13.426;2022-11-02T14:41:25;7.70;;;2.00;;
56927;SDS011;60850;52.502;13.426;2022-11-02T14:47:29;6.20;;;1.50;;
56927;SDS011;60850;52.502;13.426;2022-11-02T14:50:00;5.70;;;1.63;;
56927;SDS011;60850;52.502;13.426;2022-11-02T14:52:34;6.13;;;2.00;;
56927;SDS011;60850;52.502;13.426;2022-11-02T14:55:03;6.00;;;1.50;;
56927;SDS011;60850;52.502;13.426;2022-11-02T14:57:32;2.78;;;1.15;;
56927;SDS011;60850;52.502;13.426;2022-11-02T15:00:04;5.90;;;1.65;;
56927;SDS011;60850;52.502;13.426;2022-11-02T15:02:43;6.38;;;1.83;;
56927;SDS011;60850;52.502;13.426;2022-11-02T15:05:18;6.53;;;1.98;;
56927;SDS011;60850;52.502;13.426;2022-11-02T15:07:50;3.75;;;1.70;;
56927;SDS011;60850;52.502;13.426;2022-11-02T15:10:39;5.53;;;1.40;;
56927;SDS011;60850;52.502;13.426;2022-11-02T15:16:22;4.72;;;1.33;;
56927;SDS011;60850;52.502;13.426;2022-11-02T15:18:50;3.80;;;1.58;;
56927;SDS011;60850;52.502;13.426;2022-11-02T15:21:23;5.63;;;1.88;;
56927;SDS011;60850;52.502;13.426;2022-11-02T15:23:54;3.50;;;1.65;;
56927;SDS011;60850;52.502;13.426;2022-11-02T15:26:28;7.32;;;1.80;;
56927;SDS011;60850;52.502;13.426;2022-11-02T15:29:02;6.22;;;1.95;;
56927;SDS011;60850;52.502;13.426;2022-11-02T15:31:31;5.22;;;1.40;;
56927;SDS011;60850;52.502;13.426;2022-11-02T15:34:01;6.32;;;1.80;;